createdAt,value
2023-02-20T00:06:03.782Z,101680.31
2023-02-20T00:13:05.321Z,101674.63
2023-02-20T00:20:07.596Z,101662.34
2023-02-20T00:27:09.216Z,101667.16
2023-02-20T00:34:10.793Z,101635.03
2023-02-20T00:41:14.229Z,101643.78
2023-02-20T00:48:15.837Z,101640.38
2023-02-20T00:55:17.502Z,101633.19
2023-02-20T01:02:20.677Z,101618.38
2023-02-20T01:09:23.547Z,101629.72
2023-02-20T01:16:25.179Z,101620.16
2023-02-20T01:23:26.872Z,101605.09
2023-02-20T01:30:28.495Z,101597.09
2023-02-20T01:37:30.085Z,101575.81
2023-02-20T01:44:34.480Z,101566.31
2023-02-20T01:51:38.450Z,101549.13
2023-02-20T01:58:45.587Z,101531.41
2023-02-20T02:05:49.704Z,101505.47
2023-02-20T02:12:52.760Z,101511.88
2023-02-20T02:20:07.459Z,101500.59
2023-02-20T02:27:46.544Z,101507.13
2023-02-20T02:34:56.407Z,101492.31
2023-02-20T02:42:01.833Z,101477.25
2023-02-20T02:49:05.744Z,101467.72
2023-02-20T02:56:23.837Z,101460.59
2023-02-20T03:03:30.248Z,101452.16
2023-02-20T03:10:32.137Z,101433.72
2023-02-20T03:17:56.764Z,101423.38
2023-02-20T03:25:03.980Z,101412.59
2023-02-20T03:32:28.965Z,101393.41
2023-02-20T03:39:51.388Z,101373.22
2023-02-20T03:46:53.158Z,101370.56
2023-02-20T03:53:54.795Z,101368.22
2023-02-20T04:00:56.671Z,101395.72
2023-02-20T04:08:31.367Z,101380.41
2023-02-20T04:15:33.912Z,101363.47
2023-02-20T04:22:38.150Z,101351.22
2023-02-20T04:29:40.762Z,101346.94
2023-02-20T04:36:42.536Z,101336.13
2023-02-20T04:43:44.891Z,101326.56
2023-02-20T04:50:46.631Z,101318.16
2023-02-20T04:57:50.281Z,101293.78
2023-02-20T05:04:52.013Z,101283.13
2023-02-20T05:11:55.777Z,101268.19
2023-02-20T05:18:57.483Z,101244.50
2023-02-20T05:25:59.091Z,101248.59
2023-02-20T05:33:00.656Z,101255.88
2023-02-20T05:40:02.250Z,101241.31
2023-02-20T05:47:03.940Z,101245.81
2023-02-20T05:54:05.603Z,101230.16
2023-02-20T06:01:07.152Z,101210.06
2023-02-20T06:08:08.687Z,101193.28
2023-02-20T06:15:10.336Z,101178.44
2023-02-20T06:22:11.988Z,101166.72
2023-02-20T06:29:14.133Z,101161.44
2023-02-20T06:36:20.544Z,101158.19
2023-02-20T06:43:22.105Z,101142.97
2023-02-20T06:50:23.699Z,101159.13
2023-02-20T06:57:25.245Z,101138.22
2023-02-20T07:04:27.886Z,101146.09
2023-02-20T07:11:29.585Z,101131.59
2023-02-20T07:18:31.214Z,101117.97
2023-02-20T07:25:32.870Z,101119.13
2023-02-20T07:32:34.414Z,101121.44
2023-02-20T07:39:35.971Z,101126.78
2023-02-20T07:46:37.557Z,101101.06
2023-02-20T07:53:39.109Z,101079.38
2023-02-20T08:00:40.714Z,101067.06
2023-02-20T08:07:46.550Z,101067.50
2023-02-20T08:14:51.132Z,101045.22
2023-02-20T08:21:52.705Z,101044.41
2023-02-20T08:28:54.235Z,101017.75
2023-02-20T08:35:57.219Z,101006.50
2023-02-20T08:42:59.163Z,100980.72
2023-02-20T08:50:00.753Z,100979.34
2023-02-20T08:57:02.356Z,100962.50
2023-02-20T09:04:04.027Z,100943.09
2023-02-20T09:11:05.870Z,100919.16
2023-02-20T09:18:09.950Z,100898.63
2023-02-20T09:25:11.901Z,100889.59
2023-02-20T09:32:13.838Z,100858.19
2023-02-20T09:39:17.772Z,100833.75
2023-02-20T09:46:20.220Z,100843.09
2023-02-20T09:53:27.897Z,100828.22
2023-02-20T10:00:31.552Z,100828.78
2023-02-20T10:07:37.887Z,100820.00
2023-02-20T10:15:11.153Z,100818.63
2023-02-20T10:22:22.126Z,100799.34
2023-02-20T10:29:25.415Z,100780.25
2023-02-20T10:36:30.261Z,100778.06
2023-02-20T10:43:42.696Z,100788.75
2023-02-20T10:50:50.704Z,100785.72
2023-02-20T10:57:56.891Z,100764.50
2023-02-20T11:05:01.727Z,100749.22
2023-02-20T11:12:03.335Z,100753.13
2023-02-20T11:19:08.635Z,100759.41
2023-02-20T11:26:25.810Z,100750.31
2023-02-20T11:33:29.100Z,100745.03
2023-02-20T11:40:33.867Z,100740.31
2023-02-20T11:47:35.398Z,100736.97
2023-02-20T11:54:36.936Z,100726.22
2023-02-20T12:01:38.503Z,100725.50
2023-02-20T12:09:02.121Z,100721.72
2023-02-20T12:16:25.485Z,100726.22
2023-02-20T12:23:43.769Z,100727.41
2023-02-20T12:31:11.304Z,100710.53
2023-02-20T12:38:23.705Z,100713.78
2023-02-20T12:45:46.330Z,100697.03
2023-02-20T12:53:12.129Z,100707.59
2023-02-20T13:00:32.916Z,100711.00
2023-02-20T13:07:37.289Z,100712.75
2023-02-20T13:14:57.341Z,100723.56
2023-02-20T13:21:59.044Z,100715.91
2023-02-20T13:29:16.779Z,100706.94
2023-02-20T13:36:28.481Z,100710.16
2023-02-20T13:43:33.589Z,100706.56
2023-02-20T13:50:35.213Z,100730.19
2023-02-20T13:57:55.884Z,100730.59
2023-02-20T14:05:02.094Z,100714.88
2023-02-20T14:12:08.434Z,100722.06
2023-02-20T14:19:18.361Z,100721.31
2023-02-20T14:26:30.876Z,100727.81
2023-02-20T14:33:32.865Z,100724.53
2023-02-20T14:40:37.497Z,100738.47
2023-02-20T14:47:52.728Z,100724.97
2023-02-20T14:55:05.131Z,100710.00
2023-02-20T15:02:33.317Z,100699.22
2023-02-20T15:09:43.106Z,100713.16
2023-02-20T15:16:44.741Z,100702.84
2023-02-20T15:23:46.335Z,100704.16
2023-02-20T15:31:07.079Z,100688.22
2023-02-20T15:38:09.311Z,100679.78
2023-02-20T15:45:13.913Z,100677.41
2023-02-20T15:52:17.484Z,100689.41
2023-02-20T15:59:19.045Z,100691.22
2023-02-20T16:06:22.359Z,100688.69
2023-02-20T16:13:29.154Z,100684.81
2023-02-20T16:20:30.999Z,100691.41
2023-02-20T16:27:32.681Z,100703.63
2023-02-20T16:34:35.258Z,100703.41
2023-02-20T16:41:36.939Z,100699.19
2023-02-20T16:48:43.115Z,100698.69
2023-02-20T16:55:47.097Z,100715.81
2023-02-20T17:02:48.730Z,100709.63
2023-02-20T17:09:50.373Z,100722.13
2023-02-20T17:16:52.019Z,100718.06
2023-02-20T17:23:53.645Z,100721.69
2023-02-20T17:30:55.899Z,100724.91
2023-02-20T17:37:57.592Z,100720.94
2023-02-20T17:45:00.209Z,100708.69
2023-02-20T17:52:01.967Z,100720.19
2023-02-20T17:59:03.520Z,100739.03
2023-02-20T18:06:05.484Z,100736.75
2023-02-20T18:13:07.088Z,100742.13
2023-02-20T18:20:08.969Z,100740.56
2023-02-20T18:27:10.580Z,100733.81
2023-02-20T18:34:12.285Z,100728.06
2023-02-20T18:41:13.993Z,100723.47
2023-02-20T18:48:15.677Z,100735.06
2023-02-20T18:55:17.763Z,100728.78
2023-02-20T19:02:19.604Z,100714.56
2023-02-20T19:09:22.782Z,100699.59
2023-02-20T19:16:24.425Z,100702.81
2023-02-20T19:23:25.951Z,100686.38
2023-02-20T19:30:27.603Z,100691.75
2023-02-20T19:37:29.222Z,100683.06
2023-02-20T19:44:30.825Z,100691.63
2023-02-20T19:51:32.504Z,100690.25
2023-02-20T19:58:37.055Z,100671.66
2023-02-20T20:05:38.638Z,100667.00
2023-02-20T20:12:49.512Z,100666.34
2023-02-20T20:20:00.397Z,100676.94
2023-02-20T20:27:02.689Z,100674.91
2023-02-20T20:34:05.162Z,100672.00
2023-02-20T20:41:06.862Z,100671.69
2023-02-20T20:48:08.741Z,100659.25
2023-02-20T20:55:10.504Z,100659.84
2023-02-20T21:02:12.374Z,100656.44
2023-02-20T21:09:14.006Z,100663.75
2023-02-20T21:16:16.406Z,100657.97
2023-02-20T21:23:18.247Z,100651.19
2023-02-20T21:30:20.428Z,100639.56
2023-02-20T21:37:22.496Z,100648.22
2023-02-20T21:44:27.503Z,100647.66
2023-02-20T21:51:29.156Z,100653.06
2023-02-20T21:58:49.295Z,100642.16
2023-02-20T22:05:50.815Z,100649.91
2023-02-20T22:13:11.156Z,100642.28
2023-02-20T22:20:31.752Z,100646.50
2023-02-20T22:27:52.090Z,100653.56
2023-02-20T22:35:12.540Z,100638.22
2023-02-20T22:42:35.225Z,100639.97
2023-02-20T22:49:55.948Z,100646.16
2023-02-20T22:57:16.290Z,100661.81
2023-02-20T23:04:36.541Z,100663.72
2023-02-20T23:11:56.690Z,100661.31
2023-02-20T23:19:17.010Z,100682.84
2023-02-20T23:26:37.053Z,100687.19
2023-02-20T23:33:57.208Z,100693.72
2023-02-20T23:41:17.297Z,100703.47
2023-02-20T23:48:37.198Z,100702.50
2023-02-20T23:55:57.902Z,100714.34
